Time,TemperatureF,DewpointF,PressureIn,WindDirection,WindDirectionDegrees,WindSpeedMPH,WindSpeedGustMPH,Humidity,HourlyPrecipIn,Conditions,Clouds,dailyrainin,SoftwareType,DateUTC
2013-02-20 00:00:00,40.4,36.2,29.83,WNW,302,12.0,12.0,85,0.00,,,0.08,Wunderground v.1.15,2013-02-20 05:00:00,
2013-02-20 00:01:00,40.4,35.9,29.83,NW,315,12.0,12.0,84,0.00,,,0.08,Wunderground v.1.15,2013-02-20 05:01:00,
2013-02-20 00:02:00,40.5,36.0,29.83,NW,309,13.0,13.0,84,0.00,,,0.08,Wunderground v.1.15,2013-02-20 05:02:00,
2013-02-20 00:07:00,40.8,35.4,29.83,WNW,302,14.0,18.0,81,0.00,,,0.08,Wunderground v.1.15,2013-02-20 05:07:00,
2013-02-20 00:09:00,40.8,35.4,29.83,NW,308,15.0,18.0,81,0.00,,,0.08,Wunderground v.1.15,2013-02-20 05:09:00,
2013-02-20 00:15:00,41.1,34.4,29.83,NW,314,15.0,20.0,77,0.00,,,0.00,Wunderground v.1.15,2013-02-20 05:15:00,
2013-02-20 00:20:00,41.1,34.4,29.83,NW,311,12.0,16.0,77,0.00,,,0.00,Wunderground v.1.15,2013-02-20 05:20:00,
2013-02-20 00:26:00,41.1,34.4,29.83,NW,314,14.0,16.0,77,0.00,,,0.00,Wunderground v.1.15,2013-02-20 05:26:00,
2013-02-20 00:31:00,40.8,34.1,29.83,NW,313,15.0,15.0,77,0.00,,,0.00,Wunderground v.1.15,2013-02-20 05:31:00,
2013-02-20 00:37:00,40.6,34.3,29.84,NW,311,13.0,15.0,78,0.00,,,0.00,Wunderground v.1.15,2013-02-20 05:37:00,
2013-02-20 00:43:00,40.6,34.3,29.84,NW,314,14.0,14.0,78,0.00,,,0.00,Wunderground v.1.15,2013-02-20 05:43:00,
2013-02-20 00:48:00,40.4,33.8,29.84,NW,311,15.0,15.0,77,0.00,,,0.00,Wunderground v.1.15,2013-02-20 05:48:00,
2013-02-20 00:53:00,40.4,33.8,29.84,NW,315,13.0,14.0,77,0.00,,,0.00,Wunderground v.1.15,2013-02-20 05:53:00,
2013-02-20 00:59:00,40.3,33.0,29.84,NW,315,13.0,17.0,75,0.00,,,0.00,Wunderground v.1.15,2013-02-20 05:59:00,
2013-02-20 01:04:00,40.3,33.7,29.84,NW,318,11.0,14.0,77,0.00,,,0.00,Wunderground v.1.15,2013-02-20 06:04:00,
2013-02-20 01:10:00,40.2,33.9,29.84,NW,315,16.0,16.0,78,0.00,,,0.00,Wunderground v.1.15,2013-02-20 06:10:00,
2013-02-20 01:15:00,40.1,32.8,29.85,NW,321,16.0,18.0,75,0.00,,,0.00,Wunderground v.1.15,2013-02-20 06:15:00,
2013-02-20 01:21:00,40.2,32.6,29.85,NW,323,19.0,19.0,74,0.00,,,0.00,Wunderground v.1.15,2013-02-20 06:21:00,
2013-02-20 01:26:00,40.2,32.2,29.85,NW,317,14.0,19.0,73,0.00,,,0.00,Wunderground v.1.15,2013-02-20 06:26:00,
2013-02-20 01:31:00,40.1,32.5,29.85,NW,317,16.0,18.0,74,0.00,,,0.00,Wunderground v.1.15,2013-02-20 06:31:00,
2013-02-20 01:37:00,40.0,32.4,29.85,NW,306,16.0,18.0,74,0.00,,,0.00,Wunderground v.1.15,2013-02-20 06:37:00,
2013-02-20 01:43:00,39.9,32.3,29.85,NW,320,16.0,18.0,74,0.00,,,0.00,Wunderground v.1.15,2013-02-20 06:43:00,
2013-02-20 01:49:00,39.8,31.8,29.85,NW,311,19.0,22.0,73,0.00,,,0.00,Wunderground v.1.15,2013-02-20 06:49:00,
2013-02-20 01:54:00,39.8,31.5,29.85,NW,314,15.0,18.0,72,0.00,,,0.00,Wunderground v.1.15,2013-02-20 06:54:00,
2013-02-20 02:00:00,39.7,31.4,29.85,NW,320,20.0,20.0,72,0.00,,,0.00,Wunderground v.1.15,2013-02-20 07:00:00,
2013-02-20 02:05:00,39.7,31.4,29.85,NNW,328,19.0,24.0,72,0.00,,,0.00,Wunderground v.1.15,2013-02-20 07:05:00,
2013-02-20 02:10:00,39.7,31.8,29.86,NW,317,16.0,18.0,73,0.00,,,0.00,Wunderground v.1.15,2013-02-20 07:10:00,
2013-02-20 02:15:00,39.5,31.9,29.86,NW,325,17.0,20.0,74,0.00,,,0.00,Wunderground v.1.15,2013-02-20 07:15:00,
2013-02-20 02:20:00,39.4,31.8,29.86,NNW,327,16.0,17.0,74,0.00,,,0.00,Wunderground v.1.15,2013-02-20 07:20:00,
2013-02-20 02:25:00,39.3,32.0,29.86,NW,325,14.0,18.0,75,0.00,,,0.00,Wunderground v.1.15,2013-02-20 07:25:00,
2013-02-20 02:30:00,39.1,32.2,29.86,NW,326,15.0,16.0,76,0.00,,,0.00,Wunderground v.1.15,2013-02-20 07:30:00,
2013-02-20 02:35:00,39.0,31.4,29.86,NW,325,14.0,19.0,74,0.00,,,0.00,Wunderground v.1.15,2013-02-20 07:35:00,
2013-02-20 02:40:00,39.0,31.4,29.86,NNW,328,15.0,16.0,74,0.00,,,0.00,Wunderground v.1.15,2013-02-20 07:40:00,
2013-02-20 02:45:00,38.9,31.3,29.86,NNW,327,18.0,19.0,74,0.00,,,0.00,Wunderground v.1.15,2013-02-20 07:45:00,
2013-02-20 02:50:00,38.9,31.0,29.86,NNW,329,17.0,17.0,73,0.00,,,0.00,Wunderground v.1.15,2013-02-20 07:50:00,
2013-02-20 02:55:00,38.8,31.6,29.87,NNW,327,17.0,20.0,75,0.00,,,0.00,Wunderground v.1.15,2013-02-20 07:55:00,
2013-02-20 03:00:00,38.7,30.8,29.87,NNW,336,16.0,18.0,73,0.00,,,0.00,Wunderground v.1.15,2013-02-20 08:00:00,
2013-02-20 03:05:00,38.7,31.1,29.86,NW,321,16.0,19.0,74,0.00,,,0.00,Wunderground v.1.15,2013-02-20 08:05:00,
2013-02-20 03:10:00,38.6,31.0,29.87,NNW,328,15.0,17.0,74,0.00,,,0.00,Wunderground v.1.15,2013-02-20 08:10:00,
2013-02-20 03:15:00,38.5,30.9,29.87,NNW,328,15.0,21.0,74,0.00,,,0.00,Wunderground v.1.15,2013-02-20 08:15:00,
2013-02-20 03:20:00,38.4,30.8,29.87,NW,317,15.0,16.0,74,0.00,,,0.00,Wunderground v.1.15,2013-02-20 08:20:00,
2013-02-20 03:25:00,38.4,30.5,29.87,NW,319,15.0,18.0,73,0.00,,,0.00,Wunderground v.1.15,2013-02-20 08:25:00,
2013-02-20 03:30:00,38.3,30.1,29.87,NNW,327,18.0,20.0,72,0.00,,,0.00,Wunderground v.1.15,2013-02-20 08:30:00,
2013-02-20 03:35:00,38.2,29.6,29.87,NNW,334,17.0,23.0,71,0.00,,,0.00,Wunderground v.1.15,2013-02-20 08:35:00,
2013-02-20 03:40:00,38.2,30.3,29.87,NNW,332,20.0,21.0,73,0.00,,,0.00,Wunderground v.1.15,2013-02-20 08:40:00,
2013-02-20 03:45:00,38.1,29.9,29.87,NNW,331,24.0,24.0,72,0.00,,,0.00,Wunderground v.1.15,2013-02-20 08:45:00,
2013-02-20 03:51:00,38.0,30.4,29.87,NW,322,22.0,24.0,74,0.00,,,0.00,Wunderground v.1.15,2013-02-20 08:51:00,
2013-02-20 03:56:00,37.9,30.0,29.88,NNW,327,21.0,25.0,73,0.00,,,0.00,Wunderground v.1.15,2013-02-20 08:56:00,
2013-02-20 04:01:00,37.8,29.2,29.88,NNW,336,27.0,27.0,71,0.00,,,0.00,Wunderground v.1.15,2013-02-20 09:01:00,
2013-02-20 04:06:00,37.7,28.8,29.88,NNW,331,22.0,28.0,70,0.00,,,0.00,Wunderground v.1.15,2013-02-20 09:06:00,
2013-02-20 04:11:00,37.6,29.0,29.88,NW,325,23.0,24.0,71,0.00,,,0.00,Wunderground v.1.15,2013-02-20 09:11:00,
2013-02-20 04:16:00,37.5,28.9,29.89,NNW,331,23.0,24.0,71,0.00,,,0.00,Wunderground v.1.15,2013-02-20 09:16:00,
2013-02-20 04:21:00,37.5,29.3,29.89,NW,325,19.0,25.0,72,0.00,,,0.00,Wunderground v.1.15,2013-02-20 09:21:00,
2013-02-20 04:26:00,37.5,29.3,29.89,NW,325,21.0,26.0,72,0.00,,,0.00,Wunderground v.1.15,2013-02-20 09:26:00,
2013-02-20 04:31:00,37.4,30.5,29.89,NW,318,23.0,23.0,76,0.00,,,0.00,Wunderground v.1.15,2013-02-20 09:31:00,
2013-02-20 04:36:00,37.3,28.8,29.89,NNW,329,20.0,24.0,71,0.00,,,0.00,Wunderground v.1.15,2013-02-20 09:36:00,
2013-02-20 04:41:00,37.3,28.4,29.89,NNW,337,16.0,21.0,70,0.00,,,0.00,Wunderground v.1.15,2013-02-20 09:41:00,
2013-02-20 04:46:00,37.2,29.0,29.89,NNW,338,18.0,22.0,72,0.00,,,0.00,Wunderground v.1.15,2013-02-20 09:46:00,
2013-02-20 04:51:00,37.1,28.9,29.89,NW,325,16.0,20.0,72,0.00,,,0.00,Wunderground v.1.15,2013-02-20 09:51:00,
2013-02-20 04:56:00,37.1,28.2,29.89,NNW,331,15.0,21.0,70,0.00,,,0.00,Wunderground v.1.15,2013-02-20 09:56:00,
2013-02-20 05:01:00,37.0,28.5,29.90,North,351,6.0,18.0,71,0.00,,,0.00,Wunderground v.1.15,2013-02-20 10:01:00,
2013-02-20 05:06:00,36.8,28.3,29.90,North,11,3.0,18.0,71,0.00,,,0.00,Wunderground v.1.15,2013-02-20 10:06:00,
2013-02-20 05:11:00,36.4,28.2,29.90,NNW,340,15.0,18.0,72,0.00,,,0.00,Wunderground v.1.15,2013-02-20 10:11:00,
2013-02-20 05:16:00,36.4,27.9,29.90,NNW,330,19.0,24.0,71,0.00,,,0.00,Wunderground v.1.15,2013-02-20 10:16:00,
2013-02-20 05:21:00,36.4,27.5,29.91,NNW,331,20.0,22.0,70,0.00,,,0.00,Wunderground v.1.15,2013-02-20 10:21:00,
2013-02-20 05:26:00,36.3,27.4,29.91,NNW,327,19.0,23.0,70,0.00,,,0.00,Wunderground v.1.15,2013-02-20 10:26:00,
2013-02-20 05:31:00,36.2,27.4,29.91,NW,319,22.0,24.0,70,0.00,,,0.00,Wunderground v.1.15,2013-02-20 10:31:00,
2013-02-20 05:36:00,36.2,27.4,29.92,NNW,334,19.0,25.0,70,0.00,,,0.00,Wunderground v.1.15,2013-02-20 10:36:00,
2013-02-20 05:41:00,36.1,27.6,29.92,NW,326,20.0,22.0,71,0.00,,,0.00,Wunderground v.1.15,2013-02-20 10:41:00,
2013-02-20 05:46:00,36.0,26.5,29.92,NW,320,20.0,25.0,68,0.00,,,0.00,Wunderground v.1.15,2013-02-20 10:46:00,
2013-02-20 05:51:00,36.0,27.2,29.92,NNW,334,20.0,21.0,70,0.00,,,0.00,Wunderground v.1.15,2013-02-20 10:51:00,
2013-02-20 05:56:00,35.9,26.4,29.92,NNW,327,22.0,24.0,68,0.00,,,0.00,Wunderground v.1.15,2013-02-20 10:56:00,
2013-02-20 06:01:00,35.8,26.6,29.93,NW,323,22.0,23.0,69,0.00,,,0.00,Wunderground v.1.15,2013-02-20 11:01:00,
2013-02-20 06:06:00,35.8,26.6,29.93,NW,319,22.0,26.0,69,0.00,,,0.00,Wunderground v.1.15,2013-02-20 11:06:00,
2013-02-20 06:11:00,35.7,26.9,29.93,NW,315,18.0,22.0,70,0.00,,,0.00,Wunderground v.1.15,2013-02-20 11:11:00,
2013-02-20 06:16:00,35.7,26.9,29.94,NW,315,20.0,22.0,70,0.00,,,0.00,Wunderground v.1.15,2013-02-20 11:16:00,
2013-02-20 06:21:00,35.7,26.9,29.94,NNW,335,19.0,22.0,70,0.00,,,0.00,Wunderground v.1.15,2013-02-20 11:21:00,
2013-02-20 06:26:00,35.5,26.3,29.94,NNW,330,21.0,24.0,69,0.00,,,0.00,Wunderground v.1.15,2013-02-20 11:26:00,
2013-02-20 06:31:00,35.5,26.3,29.94,NNW,329,17.0,23.0,69,0.00,,,0.00,Wunderground v.1.15,2013-02-20 11:31:00,
2013-02-20 06:36:00,35.4,26.6,29.95,NW,323,19.0,24.0,70,0.00,,,0.00,Wunderground v.1.15,2013-02-20 11:36:00,
2013-02-20 06:41:00,35.3,26.5,29.95,NW,326,19.0,25.0,70,0.00,,,0.00,Wunderground v.1.15,2013-02-20 11:41:00,
2013-02-20 06:47:00,35.2,26.0,29.95,NNW,327,27.0,27.0,69,0.00,,,0.00,Wunderground v.1.15,2013-02-20 11:47:00,
2013-02-20 06:52:00,35.1,25.6,29.95,NW,317,18.0,26.0,68,0.00,,,0.00,Wunderground v.1.15,2013-02-20 11:52:00,
2013-02-20 06:57:00,35.1,26.6,29.96,NW,319,22.0,26.0,71,0.00,,,0.00,Wunderground v.1.15,2013-02-20 11:57:00,
2013-02-20 07:02:00,35.1,25.9,29.96,NW,317,23.0,28.0,69,0.00,,,0.00,Wunderground v.1.15,2013-02-20 12:02:00,
2013-02-20 07:07:00,35.0,25.9,29.96,NW,317,26.0,28.0,69,0.00,,,0.00,Wunderground v.1.15,2013-02-20 12:07:00,
2013-02-20 07:12:00,34.9,25.4,29.96,NW,315,22.0,29.0,68,0.00,,,0.00,Wunderground v.1.15,2013-02-20 12:12:00,
2013-02-20 07:17:00,34.8,25.3,29.97,NNW,329,23.0,31.0,68,0.00,,,0.00,Wunderground v.1.15,2013-02-20 12:17:00,
2013-02-20 07:22:00,34.9,26.1,29.97,NW,312,21.0,24.0,70,0.00,,,0.00,Wunderground v.1.15,2013-02-20 12:22:00,
2013-02-20 07:27:00,34.8,25.7,29.97,NW,317,20.0,26.0,69,0.00,,,0.00,Wunderground v.1.15,2013-02-20 12:27:00,
2013-02-20 07:32:00,34.8,25.3,29.97,NW,323,23.0,25.0,68,0.00,,,0.00,Wunderground v.1.15,2013-02-20 12:32:00,
2013-02-20 07:37:00,34.7,25.2,29.98,NW,313,24.0,25.0,68,0.00,,,0.00,Wunderground v.1.15,2013-02-20 12:37:00,
2013-02-20 07:42:00,34.8,25.7,29.98,NW,325,21.0,25.0,69,0.00,,,0.00,Wunderground v.1.15,2013-02-20 12:42:00,
2013-02-20 07:47:00,34.7,25.6,29.98,NW,309,19.0,25.0,69,0.00,,,0.00,Wunderground v.1.15,2013-02-20 12:47:00,
2013-02-20 07:52:00,34.8,25.7,29.98,NW,304,19.0,25.0,69,0.00,,,0.00,Wunderground v.1.15,2013-02-20 12:52:00,
2013-02-20 07:57:00,34.8,25.7,29.98,NW,314,24.0,25.0,69,0.00,,,0.00,Wunderground v.1.15,2013-02-20 12:57:00,
2013-02-20 08:02:00,34.7,24.9,29.98,NNW,331,21.0,26.0,67,0.00,,,0.00,Wunderground v.1.15,2013-02-20 13:02:00,
2013-02-20 08:08:00,34.6,25.5,29.98,NW,310,26.0,28.0,69,0.00,,,0.00,Wunderground v.1.15,2013-02-20 13:08:00,
2013-02-20 08:13:00,34.6,25.1,29.98,NW,311,22.0,27.0,68,0.00,,,0.00,Wunderground v.1.15,2013-02-20 13:13:00,
2013-02-20 08:18:00,34.5,24.7,29.99,NW,322,21.0,30.0,67,0.00,,,0.00,Wunderground v.1.15,2013-02-20 13:18:00,
2013-02-20 08:23:00,34.6,25.1,29.99,NW,309,23.0,28.0,68,0.00,,,0.00,Wunderground v.1.15,2013-02-20 13:23:00,
2013-02-20 08:28:00,34.6,25.5,29.99,NW,309,24.0,30.0,69,0.00,,,0.00,Wunderground v.1.15,2013-02-20 13:28:00,
2013-02-20 08:33:00,34.6,25.1,29.99,NW,314,26.0,31.0,68,0.00,,,0.00,Wunderground v.1.15,2013-02-20 13:33:00,
2013-02-20 08:38:00,34.6,25.1,29.99,NW,323,22.0,31.0,68,0.00,,,0.00,Wunderground v.1.15,2013-02-20 13:38:00,
2013-02-20 08:43:00,34.5,24.7,29.99,NW,306,23.0,28.0,67,0.00,,,0.00,Wunderground v.1.15,2013-02-20 13:43:00,
2013-02-20 08:48:00,34.4,24.6,29.99,NNW,327,16.0,28.0,67,0.00,,,0.00,Wunderground v.1.15,2013-02-20 13:48:00,
2013-02-20 08:53:00,34.4,25.3,29.99,WNW,302,21.0,25.0,69,0.00,,,0.00,Wunderground v.1.15,2013-02-20 13:53:00,
2013-02-20 08:58:00,34.4,24.9,29.99,NNW,328,16.0,25.0,68,0.00,,,0.00,Wunderground v.1.15,2013-02-20 13:58:00,
2013-02-20 09:03:00,34.4,25.6,30.00,NW,317,17.0,23.0,70,0.00,,,0.00,Wunderground v.1.15,2013-02-20 14:03:00,
2013-02-20 09:08:00,34.4,24.2,30.00,WNW,299,18.0,23.0,66,0.00,,,0.00,Wunderground v.1.15,2013-02-20 14:08:00,
2013-02-20 09:13:00,34.4,25.3,29.99,WNW,302,24.0,29.0,69,0.00,,,0.00,Wunderground v.1.15,2013-02-20 14:13:00,
2013-02-20 09:18:00,34.6,25.1,30.00,NW,321,19.0,31.0,68,0.00,,,0.00,Wunderground v.1.15,2013-02-20 14:18:00,
2013-02-20 09:23:00,34.4,24.9,30.00,NW,316,20.0,24.0,68,0.00,,,0.00,Wunderground v.1.15,2013-02-20 14:23:00,
2013-02-20 09:28:00,34.4,24.6,30.00,NW,317,24.0,30.0,67,0.00,,,0.00,Wunderground v.1.15,2013-02-20 14:28:00,
2013-02-20 09:33:00,34.4,24.9,30.00,NW,313,25.0,29.0,68,0.00,,,0.00,Wunderground v.1.15,2013-02-20 14:33:00,
2013-02-20 09:38:00,34.4,24.6,30.00,NW,317,23.0,30.0,67,0.00,,,0.00,Wunderground v.1.15,2013-02-20 14:38:00,
2013-02-20 09:43:00,34.4,24.9,30.00,NW,323,20.0,28.0,68,0.00,,,0.00,Wunderground v.1.15,2013-02-20 14:43:00,
2013-02-20 09:48:00,34.4,24.9,30.00,NW,317,20.0,28.0,68,0.00,,,0.00,Wunderground v.1.15,2013-02-20 14:48:00,
2013-02-20 09:53:00,34.4,24.6,30.00,NW,309,20.0,26.0,67,0.00,,,0.00,Wunderground v.1.15,2013-02-20 14:53:00,
2013-02-20 09:58:00,34.4,24.6,30.00,NW,316,25.0,28.0,67,0.00,,,0.00,Wunderground v.1.15,2013-02-20 14:58:00,
2013-02-20 10:03:00,34.4,24.6,30.00,NW,316,21.0,27.0,67,0.00,,,0.00,Wunderground v.1.15,2013-02-20 15:03:00,
2013-02-20 10:08:00,34.4,25.3,30.00,NW,309,19.0,27.0,69,0.00,,,0.00,Wunderground v.1.15,2013-02-20 15:08:00,
2013-02-20 10:14:00,34.3,24.8,30.00,NW,304,24.0,25.0,68,0.00,,,0.00,Wunderground v.1.15,2013-02-20 15:14:00,
2013-02-20 10:19:00,34.4,24.9,30.01,NW,315,20.0,25.0,68,0.00,,,0.00,Wunderground v.1.15,2013-02-20 15:19:00,
2013-02-20 10:24:00,34.4,25.6,30.01,WNW,300,20.0,23.0,70,0.00,,,0.00,Wunderground v.1.15,2013-02-20 15:24:00,
2013-02-20 10:29:00,34.3,23.7,30.01,NW,317,19.0,25.0,65,0.00,,,0.00,Wunderground v.1.15,2013-02-20 15:29:00,
2013-02-20 10:34:00,34.3,23.7,30.01,NW,308,20.0,21.0,65,0.00,,,0.00,Wunderground v.1.15,2013-02-20 15:34:00,
2013-02-20 10:39:00,34.3,23.7,30.01,NW,304,18.0,21.0,65,0.00,,,0.00,Wunderground v.1.15,2013-02-20 15:39:00,
2013-02-20 10:44:00,34.4,24.2,30.01,NW,318,15.0,21.0,66,0.00,,,0.00,Wunderground v.1.15,2013-02-20 15:44:00,
2013-02-20 10:49:00,34.4,24.6,30.02,NW,313,15.0,21.0,67,0.00,,,0.00,Wunderground v.1.15,2013-02-20 15:49:00,
2013-02-20 10:54:00,34.4,24.6,30.02,NW,312,17.0,17.0,67,0.00,,,0.00,Wunderground v.1.15,2013-02-20 15:54:00,
2013-02-20 10:59:00,34.4,24.6,30.01,NW,315,18.0,18.0,67,0.00,,,0.00,Wunderground v.1.15,2013-02-20 15:59:00,
2013-02-20 11:04:00,34.5,24.3,30.02,WNW,294,13.0,21.0,66,0.00,,,0.00,Wunderground v.1.15,2013-02-20 16:04:00,
2013-02-20 11:09:00,34.4,23.8,30.02,WNW,294,17.0,21.0,65,0.00,,,0.00,Wunderground v.1.15,2013-02-20 16:09:00,
2013-02-20 11:14:00,34.5,23.6,30.02,NW,305,17.0,21.0,64,0.00,,,0.00,Wunderground v.1.15,2013-02-20 16:14:00,
2013-02-20 11:19:00,34.6,24.4,30.02,WNW,299,16.0,21.0,66,0.00,,,0.00,Wunderground v.1.15,2013-02-20 16:19:00,
2013-02-20 11:24:00,34.6,24.4,30.02,NW,311,19.0,23.0,66,0.00,,,0.00,Wunderground v.1.15,2013-02-20 16:24:00,
2013-02-20 11:29:00,34.6,24.0,30.02,WNW,302,16.0,23.0,65,0.00,,,0.00,Wunderground v.1.15,2013-02-20 16:29:00,
2013-02-20 11:34:00,34.5,24.3,30.02,NW,308,16.0,18.0,66,0.00,,,0.00,Wunderground v.1.15,2013-02-20 16:34:00,
2013-02-20 11:39:00,34.8,25.3,30.02,NW,315,18.0,21.0,68,0.00,,,0.00,Wunderground v.1.15,2013-02-20 16:39:00,
2013-02-20 11:44:00,34.8,25.0,30.02,WNW,295,17.0,20.0,67,0.00,,,0.00,Wunderground v.1.15,2013-02-20 16:44:00,
2013-02-20 11:49:00,34.9,25.4,30.01,WNW,299,15.0,21.0,68,0.00,,,0.00,Wunderground v.1.15,2013-02-20 16:49:00,
2013-02-20 11:54:00,34.9,25.4,30.01,NW,312,16.0,19.0,68,0.00,,,0.00,Wunderground v.1.15,2013-02-20 16:54:00,
2013-02-20 11:59:00,34.8,24.6,30.01,NW,309,17.0,23.0,66,0.00,,,0.00,Wunderground v.1.15,2013-02-20 16:59:00,
2013-02-20 12:04:00,34.9,24.7,30.01,WNW,298,18.0,23.0,66,0.00,,,0.00,Wunderground v.1.15,2013-02-20 17:04:00,
2013-02-20 12:09:00,35.2,25.7,30.00,NW,306,23.0,23.0,68,0.00,,,0.00,Wunderground v.1.15,2013-02-20 17:09:00,
2013-02-20 12:14:00,35.2,25.0,30.00,NW,306,19.0,25.0,66,0.00,,,0.00,Wunderground v.1.15,2013-02-20 17:14:00,
2013-02-20 12:19:00,35.2,25.0,30.00,NW,321,22.0,26.0,66,0.00,,,0.00,Wunderground v.1.15,2013-02-20 17:19:00,
2013-02-20 12:24:00,35.2,25.0,29.99,NW,304,24.0,26.0,66,0.00,,,0.00,Wunderground v.1.15,2013-02-20 17:24:00,
2013-02-20 12:29:00,35.1,24.9,29.99,NW,313,18.0,26.0,66,0.00,,,0.00,Wunderground v.1.15,2013-02-20 17:29:00,
2013-02-20 12:34:00,35.2,25.3,30.00,NW,306,21.0,25.0,67,0.00,,,0.00,Wunderground v.1.15,2013-02-20 17:34:00,
2013-02-20 12:39:00,35.3,25.1,29.99,WNW,297,18.0,27.0,66,0.00,,,0.00,Wunderground v.1.15,2013-02-20 17:39:00,
2013-02-20 12:44:00,35.5,26.0,29.99,NW,304,16.0,23.0,68,0.00,,,0.00,Wunderground v.1.15,2013-02-20 17:44:00,
2013-02-20 12:49:00,35.5,25.3,29.99,WNW,302,17.0,23.0,66,0.00,,,0.00,Wunderground v.1.15,2013-02-20 17:49:00,
2013-02-20 12:54:00,35.6,25.0,29.99,NW,305,20.0,24.0,65,0.00,,,0.00,Wunderground v.1.15,2013-02-20 17:54:00,
2013-02-20 12:59:00,35.6,25.4,29.99,NW,315,21.0,24.0,66,0.00,,,0.00,Wunderground v.1.15,2013-02-20 17:59:00,
2013-02-20 13:04:00,35.6,25.4,29.99,NW,316,19.0,23.0,66,0.00,,,0.00,Wunderground v.1.15,2013-02-20 18:04:00,
2013-02-20 13:09:00,35.7,26.5,29.98,NW,319,17.0,23.0,69,0.00,,,0.00,Wunderground v.1.15,2013-02-20 18:09:00,
2013-02-20 13:14:00,35.7,25.4,29.98,NW,305,22.0,25.0,66,0.00,,,0.00,Wunderground v.1.15,2013-02-20 18:14:00,
2013-02-20 13:19:00,35.9,25.6,29.98,NNW,327,18.0,25.0,66,0.00,,,0.00,Wunderground v.1.15,2013-02-20 18:19:00,
2013-02-20 13:24:00,35.8,25.9,29.98,NW,309,18.0,22.0,67,0.00,,,0.00,Wunderground v.1.15,2013-02-20 18:24:00,
2013-02-20 13:29:00,35.9,26.0,29.98,NW,315,16.0,22.0,67,0.00,,,0.00,Wunderground v.1.15,2013-02-20 18:29:00,
2013-02-20 13:34:00,35.9,25.3,29.98,NW,311,19.0,22.0,65,0.00,,,0.00,Wunderground v.1.15,2013-02-20 18:34:00,
2013-02-20 13:39:00,36.2,26.3,29.98,NW,306,18.0,24.0,67,0.00,,,0.00,Wunderground v.1.15,2013-02-20 18:39:00,
2013-02-20 13:44:00,36.4,26.1,29.98,NW,307,20.0,26.0,66,0.00,,,0.00,Wunderground v.1.15,2013-02-20 18:44:00,
2013-02-20 13:49:00,36.4,26.1,29.98,NNW,329,20.0,26.0,66,0.00,,,0.00,Wunderground v.1.15,2013-02-20 18:49:00,
2013-02-20 13:54:00,36.3,26.4,29.98,NNW,329,14.0,22.0,67,0.00,,,0.00,Wunderground v.1.15,2013-02-20 18:54:00,
2013-02-20 14:00:00,36.3,27.1,29.98,NW,304,13.0,16.0,69,0.00,,,0.00,Wunderground v.1.15,2013-02-20 19:00:00,
2013-02-20 14:05:00,36.5,26.2,29.98,NW,313,16.0,22.0,66,0.00,,,0.00,Wunderground v.1.15,2013-02-20 19:05:00,
2013-02-20 14:10:00,36.5,26.6,29.98,NW,313,17.0,17.0,67,0.00,,,0.00,Wunderground v.1.15,2013-02-20 19:10:00,
2013-02-20 14:15:00,36.4,27.2,29.98,NW,321,19.0,22.0,69,0.00,,,0.00,Wunderground v.1.15,2013-02-20 19:15:00,
2013-02-20 14:20:00,36.5,26.9,29.98,NW,326,16.0,19.0,68,0.00,,,0.00,Wunderground v.1.15,2013-02-20 19:20:00,
2013-02-20 14:25:00,36.5,26.6,29.98,NW,314,16.0,24.0,67,0.00,,,0.00,Wunderground v.1.15,2013-02-20 19:25:00,
2013-02-20 14:30:00,36.6,26.7,29.98,NW,316,19.0,23.0,67,0.00,,,0.00,Wunderground v.1.15,2013-02-20 19:30:00,
2013-02-20 14:35:00,36.7,26.8,29.98,NW,325,20.0,23.0,67,0.00,,,0.00,Wunderground v.1.15,2013-02-20 19:35:00,
2013-02-20 14:40:00,36.7,27.1,29.98,NW,314,15.0,18.0,68,0.00,,,0.00,Wunderground v.1.15,2013-02-20 19:40:00,
2013-02-20 14:45:00,36.7,26.8,29.98,NNW,334,15.0,24.0,67,0.00,,,0.00,Wunderground v.1.15,2013-02-20 19:45:00,
2013-02-20 14:50:00,36.8,27.2,29.98,NW,315,20.0,20.0,68,0.00,,,0.00,Wunderground v.1.15,2013-02-20 19:50:00,
2013-02-20 14:55:00,36.8,26.9,29.98,NNW,332,21.0,23.0,67,0.00,,,0.00,Wunderground v.1.15,2013-02-20 19:55:00,
2013-02-20 15:00:00,36.8,27.6,29.98,NW,319,18.0,19.0,69,0.00,,,0.00,Wunderground v.1.15,2013-02-20 20:00:00,
2013-02-20 15:05:00,36.7,26.0,29.98,NW,311,19.0,21.0,65,0.00,,,0.00,Wunderground v.1.15,2013-02-20 20:05:00,
2013-02-20 15:10:00,36.8,26.9,29.98,NNW,330,21.0,22.0,67,0.00,,,0.00,Wunderground v.1.15,2013-02-20 20:10:00,
2013-02-20 15:15:00,36.9,27.0,29.98,NW,323,18.0,22.0,67,0.00,,,0.00,Wunderground v.1.15,2013-02-20 20:15:00,
2013-02-20 15:20:00,37.0,27.1,29.99,NW,318,20.0,21.0,67,0.00,,,0.00,Wunderground v.1.15,2013-02-20 20:20:00,
2013-02-20 15:25:00,37.0,26.7,29.99,NW,321,19.0,21.0,66,0.00,,,0.00,Wunderground v.1.15,2013-02-20 20:25:00,
2013-02-20 15:30:00,37.1,27.2,29.99,NW,326,19.0,20.0,67,0.00,,,0.00,Wunderground v.1.15,2013-02-20 20:30:00,
2013-02-20 15:36:00,37.2,27.2,29.99,NNW,327,20.0,23.0,67,0.00,,,0.00,Wunderground v.1.15,2013-02-20 20:36:00,
2013-02-20 15:41:00,37.2,26.5,29.99,NNW,333,19.0,19.0,65,0.00,,,0.00,Wunderground v.1.15,2013-02-20 20:41:00,
2013-02-20 15:46:00,37.3,27.3,29.99,NW,317,15.0,20.0,67,0.00,,,0.00,Wunderground v.1.15,2013-02-20 20:46:00,
2013-02-20 15:51:00,37.4,27.4,30.00,NW,321,16.0,19.0,67,0.00,,,0.00,Wunderground v.1.15,2013-02-20 20:51:00,
2013-02-20 15:56:00,37.5,26.8,30.00,NNW,331,19.0,21.0,65,0.00,,,0.00,Wunderground v.1.15,2013-02-20 20:56:00,
2013-02-20 16:01:00,37.6,27.6,30.00,NW,304,18.0,21.0,67,0.00,,,0.00,Wunderground v.1.15,2013-02-20 21:01:00,
2013-02-20 16:06:00,37.6,26.9,30.00,NW,318,16.0,21.0,65,0.00,,,0.00,Wunderground v.1.15,2013-02-20 21:06:00,
2013-02-20 16:11:00,37.6,27.3,30.00,NNW,329,17.0,19.0,66,0.00,,,0.00,Wunderground v.1.15,2013-02-20 21:11:00,
2013-02-20 16:16:00,37.7,27.7,30.00,NW,313,18.0,20.0,67,0.00,,,0.00,Wunderground v.1.15,2013-02-20 21:16:00,
2013-02-20 16:21:00,37.7,27.0,30.00,NW,323,16.0,22.0,65,0.00,,,0.00,Wunderground v.1.15,2013-02-20 21:21:00,
2013-02-20 16:26:00,37.8,27.5,30.00,NW,326,17.0,22.0,66,0.00,,,0.00,Wunderground v.1.15,2013-02-20 21:26:00,
2013-02-20 16:31:00,37.8,27.5,30.00,NW,326,20.0,21.0,66,0.00,,,0.00,Wunderground v.1.15,2013-02-20 21:31:00,
2013-02-20 16:36:00,37.8,26.7,30.00,NW,316,17.0,23.0,64,0.00,,,0.00,Wunderground v.1.15,2013-02-20 21:36:00,
2013-02-20 16:41:00,37.9,27.9,30.00,NW,322,20.0,21.0,67,0.00,,,0.00,Wunderground v.1.15,2013-02-20 21:41:00,
2013-02-20 16:46:00,38.0,27.3,30.00,NW,311,19.0,24.0,65,0.00,,,0.00,Wunderground v.1.15,2013-02-20 21:46:00,
2013-02-20 16:51:00,38.0,27.6,30.00,NW,312,21.0,24.0,66,0.00,,,0.00,Wunderground v.1.15,2013-02-20 21:51:00,
2013-02-20 16:56:00,38.0,27.3,30.00,NW,317,20.0,24.0,65,0.00,,,0.00,Wunderground v.1.15,2013-02-20 21:56:00,
2013-02-20 17:01:00,38.0,27.6,30.01,NW,310,19.0,21.0,66,0.00,,,0.00,Wunderground v.1.15,2013-02-20 22:01:00,
2013-02-20 17:06:00,38.0,28.4,30.01,NW,323,22.0,24.0,68,0.00,,,0.00,Wunderground v.1.15,2013-02-20 22:06:00,
2013-02-20 17:11:00,37.9,27.5,30.01,NW,311,20.0,27.0,66,0.00,,,0.00,Wunderground v.1.15,2013-02-20 22:11:00,
2013-02-20 17:16:00,37.8,27.5,30.02,NW,324,24.0,27.0,66,0.00,,,0.00,Wunderground v.1.15,2013-02-20 22:16:00,
2013-02-20 17:21:00,37.7,27.7,30.02,NW,318,17.0,23.0,67,0.00,,,0.00,Wunderground v.1.15,2013-02-20 22:21:00,
2013-02-20 17:26:00,37.7,27.7,30.02,NW,319,18.0,26.0,67,0.00,,,0.00,Wunderground v.1.15,2013-02-20 22:26:00,
2013-02-20 17:31:00,37.6,28.0,30.02,NNW,333,16.0,23.0,68,0.00,,,0.00,Wunderground v.1.15,2013-02-20 22:31:00,
2013-02-20 17:36:00,37.4,27.1,30.02,NW,315,24.0,27.0,66,0.00,,,0.00,Wunderground v.1.15,2013-02-20 22:36:00,
2013-02-20 17:42:00,37.4,27.4,30.03,NW,323,18.0,26.0,67,0.00,,,0.00,Wunderground v.1.15,2013-02-20 22:42:00,
2013-02-20 17:47:00,37.3,27.3,30.03,NW,319,19.0,26.0,67,0.00,,,0.00,Wunderground v.1.15,2013-02-20 22:47:00,
2013-02-20 17:52:00,37.1,27.9,30.03,NNW,328,21.0,21.0,69,0.00,,,0.00,Wunderground v.1.15,2013-02-20 22:52:00,
2013-02-20 17:57:00,36.6,25.9,30.04,NNW,342,20.0,26.0,65,0.00,,,0.00,Wunderground v.1.15,2013-02-20 22:57:00,
2013-02-20 18:02:00,36.2,25.2,30.04,NNW,329,23.0,24.0,64,0.00,,,0.00,Wunderground v.1.15,2013-02-20 23:02:00,
2013-02-20 18:07:00,36.0,25.0,30.05,NW,317,21.0,26.0,64,0.00,,,0.00,Wunderground v.1.15,2013-02-20 23:07:00,
2013-02-20 18:12:00,35.9,25.6,30.05,NNW,337,13.0,23.0,66,0.00,,,0.00,Wunderground v.1.15,2013-02-20 23:12:00,
2013-02-20 18:17:00,35.7,25.4,30.05,North,355,8.0,23.0,66,0.00,,,0.00,Wunderground v.1.15,2013-02-20 23:17:00,
2013-02-20 18:22:00,35.5,25.3,30.06,NNW,333,18.0,23.0,66,0.00,,,0.00,Wunderground v.1.15,2013-02-20 23:22:00,
2013-02-20 18:27:00,35.5,26.3,30.06,NW,315,24.0,26.0,69,0.00,,,0.00,Wunderground v.1.15,2013-02-20 23:27:00,
2013-02-20 18:32:00,35.5,26.3,30.06,NNW,333,22.0,26.0,69,0.00,,,0.00,Wunderground v.1.15,2013-02-20 23:32:00,
2013-02-20 18:37:00,35.3,25.4,30.06,NNW,330,19.0,26.0,67,0.00,,,0.00,Wunderground v.1.15,2013-02-20 23:37:00,
2013-02-20 18:42:00,35.0,25.5,30.06,NNW,329,19.0,29.0,68,0.00,,,0.00,Wunderground v.1.15,2013-02-20 23:42:00,
2013-02-20 18:47:00,34.7,25.2,30.07,NW,325,25.0,29.0,68,0.00,,,0.00,Wunderground v.1.15,2013-02-20 23:47:00,
2013-02-20 18:53:00,34.5,25.4,30.07,NNW,331,24.0,28.0,69,0.00,,,0.00,Wunderground v.1.15,2013-02-20 23:53:00,
2013-02-20 18:58:00,34.4,24.6,30.08,NNW,327,20.0,29.0,67,0.00,,,0.00,Wunderground v.1.15,2013-02-20 23:58:00,
2013-02-20 19:03:00,34.4,25.3,30.08,NNW,330,24.0,26.0,69,0.00,,,0.00,Wunderground v.1.15,2013-02-21 00:03:00,
2013-02-20 19:08:00,34.2,25.4,30.08,NNW,333,20.0,29.0,70,0.00,,,0.00,Wunderground v.1.15,2013-02-21 00:08:00,
2013-02-20 19:13:00,34.1,25.0,30.09,NNW,335,25.0,26.0,69,0.00,,,0.00,Wunderground v.1.15,2013-02-21 00:13:00,
2013-02-20 19:18:00,34.1,25.3,30.09,NNW,333,21.0,26.0,70,0.00,,,0.00,Wunderground v.1.15,2013-02-21 00:18:00,
2013-02-20 19:23:00,33.9,25.1,30.09,NW,325,23.0,31.0,70,0.00,,,0.00,Wunderground v.1.15,2013-02-21 00:23:00,
2013-02-20 19:28:00,33.6,24.2,30.09,NW,323,25.0,32.0,68,0.00,,,0.00,Wunderground v.1.15,2013-02-21 00:28:00,
2013-02-20 19:33:00,33.5,24.4,30.09,NW,324,25.0,30.0,69,0.00,,,0.00,Wunderground v.1.15,2013-02-21 00:33:00,
2013-02-20 19:38:00,33.4,24.3,30.09,NNW,333,22.0,30.0,69,0.00,,,0.00,Wunderground v.1.15,2013-02-21 00:38:00,
2013-02-20 19:43:00,33.2,23.4,30.09,NNW,327,21.0,30.0,67,0.00,,,0.00,Wunderground v.1.15,2013-02-21 00:43:00,
2013-02-20 19:48:00,32.9,23.1,30.10,NNW,330,26.0,30.0,67,0.00,,,0.00,Wunderground v.1.15,2013-02-21 00:48:00,
2013-02-20 19:53:00,32.8,23.4,30.10,NW,324,30.0,30.0,68,0.00,,,0.00,Wunderground v.1.15,2013-02-21 00:53:00,
2013-02-20 19:58:00,32.8,24.4,30.10,NW,326,29.0,31.0,71,0.00,,,0.00,Wunderground v.1.15,2013-02-21 00:58:00,
2013-02-20 20:03:00,32.6,23.2,30.10,NNW,332,24.0,32.0,68,0.00,,,0.00,Wunderground v.1.15,2013-02-21 01:03:00,
2013-02-20 20:08:00,32.6,24.2,30.10,NW,326,31.0,32.0,71,0.00,,,0.00,Wunderground v.1.15,2013-02-21 01:08:00,
2013-02-20 20:13:00,32.5,24.5,30.10,NNW,340,20.0,33.0,72,0.00,,,0.00,Wunderground v.1.15,2013-02-21 01:13:00,
2013-02-20 20:18:00,32.2,22.8,30.10,NNW,334,22.0,33.0,68,0.00,,,0.00,Wunderground v.1.15,2013-02-21 01:18:00,
2013-02-20 20:23:00,32.0,23.0,30.10,NNW,327,29.0,32.0,69,0.00,,,0.00,Wunderground v.1.15,2013-02-21 01:23:00,
2013-02-20 20:28:00,32.0,24.0,30.10,NW,319,23.0,32.0,72,0.00,,,0.00,Wunderground v.1.15,2013-02-21 01:28:00,
2013-02-20 20:33:00,32.1,23.8,30.11,NNW,327,27.0,32.0,71,0.00,,,0.00,Wunderground v.1.15,2013-02-21 01:33:00,
2013-02-20 20:38:00,31.9,23.2,30.11,NW,322,29.0,33.0,70,0.00,,,0.00,Wunderground v.1.15,2013-02-21 01:38:00,
2013-02-20 20:43:00,31.7,22.7,30.11,NNW,331,23.0,30.0,69,0.00,,,0.00,Wunderground v.1.15,2013-02-21 01:43:00,
2013-02-20 20:48:00,31.9,23.6,30.11,NNW,330,24.0,30.0,71,0.00,,,0.00,Wunderground v.1.15,2013-02-21 01:48:00,
2013-02-20 20:53:00,31.6,22.6,30.12,NW,321,23.0,28.0,69,0.00,,,0.00,Wunderground v.1.15,2013-02-21 01:53:00,
2013-02-20 20:58:00,31.3,21.6,30.12,NW,321,21.0,33.0,67,0.00,,,0.00,Wunderground v.1.15,2013-02-21 01:58:00,
2013-02-20 21:03:00,31.4,23.1,30.13,NW,319,25.0,27.0,71,0.00,,,0.00,Wunderground v.1.15,2013-02-21 02:03:00,
2013-02-20 21:08:00,31.3,22.0,30.13,NW,318,20.0,30.0,68,0.00,,,0.00,Wunderground v.1.15,2013-02-21 02:08:00,
2013-02-20 21:14:00,31.3,22.3,30.13,NW,316,21.0,29.0,69,0.00,,,0.00,Wunderground v.1.15,2013-02-21 02:14:00,
2013-02-20 21:19:00,31.2,22.2,30.13,NW,322,23.0,30.0,69,0.00,,,0.00,Wunderground v.1.15,2013-02-21 02:19:00,
2013-02-20 21:24:00,31.2,22.5,30.13,NW,311,23.0,28.0,70,0.00,,,0.00,Wunderground v.1.15,2013-02-21 02:24:00,
2013-02-20 21:29:00,31.2,22.5,30.13,NW,326,25.0,28.0,70,0.00,,,0.00,Wunderground v.1.15,2013-02-21 02:29:00,
2013-02-20 21:34:00,31.0,21.7,30.13,NNW,332,24.0,29.0,68,0.00,,,0.00,Wunderground v.1.15,2013-02-21 02:34:00,
2013-02-20 21:39:00,30.9,21.6,30.14,NNW,327,28.0,29.0,68,0.00,,,0.00,Wunderground v.1.15,2013-02-21 02:39:00,
2013-02-20 21:44:00,30.8,21.5,30.14,NW,323,22.0,26.0,68,0.00,,,0.00,Wunderground v.1.15,2013-02-21 02:44:00,
2013-02-20 21:49:00,30.9,21.6,30.14,NW,309,24.0,29.0,68,0.00,,,0.00,Wunderground v.1.15,2013-02-21 02:49:00,
2013-02-20 21:54:00,30.7,21.0,30.14,NW,319,21.0,31.0,67,0.00,,,0.00,Wunderground v.1.15,2013-02-21 02:54:00,
2013-02-20 21:59:00,30.7,21.0,30.14,NW,324,26.0,31.0,67,0.00,,,0.00,Wunderground v.1.15,2013-02-21 02:59:00,
2013-02-20 22:04:00,30.6,21.3,30.14,NW,321,26.0,27.0,68,0.00,,,0.00,Wunderground v.1.15,2013-02-21 03:04:00,
2013-02-20 22:08:00,30.6,21.3,30.14,NNW,333,19.0,27.0,68,0.00,,,0.00,Wunderground v.1.15,2013-02-21 03:08:00,
2013-02-20 22:14:00,30.6,22.0,30.14,NW,326,24.0,27.0,70,0.00,,,0.00,Wunderground v.1.15,2013-02-21 03:14:00,
2013-02-20 22:19:00,30.5,21.2,30.14,NW,315,22.0,27.0,68,0.00,,,0.00,Wunderground v.1.15,2013-02-21 03:19:00,
2013-02-20 22:24:00,30.5,20.5,30.14,NW,317,22.0,31.0,66,0.00,,,0.00,Wunderground v.1.15,2013-02-21 03:24:00,
2013-02-20 22:29:00,30.4,20.7,30.15,NW,316,20.0,31.0,67,0.00,,,0.00,Wunderground v.1.15,2013-02-21 03:29:00,
2013-02-20 22:34:00,30.3,20.6,30.14,NW,324,22.0,25.0,67,0.00,,,0.00,Wunderground v.1.15,2013-02-21 03:34:00,
2013-02-20 22:39:00,30.2,20.9,30.14,NNW,336,18.0,25.0,68,0.00,,,0.00,Wunderground v.1.15,2013-02-21 03:39:00,
2013-02-20 22:44:00,30.1,20.8,30.14,NNW,329,22.0,24.0,68,0.00,,,0.00,Wunderground v.1.15,2013-02-21 03:44:00,
2013-02-20 22:49:00,30.1,20.5,30.14,NW,321,22.0,28.0,67,0.00,,,0.00,Wunderground v.1.15,2013-02-21 03:49:00,
2013-02-20 22:54:00,30.1,21.2,30.14,NW,325,26.0,26.0,69,0.00,,,0.00,Wunderground v.1.15,2013-02-21 03:54:00,
2013-02-20 22:59:00,30.1,20.8,30.14,NW,315,21.0,26.0,68,0.00,,,0.00,Wunderground v.1.15,2013-02-21 03:59:00,
2013-02-20 23:04:00,30.0,20.7,30.14,NW,320,22.0,25.0,68,0.00,,,0.00,Wunderground v.1.15,2013-02-21 04:04:00,
2013-02-20 23:09:00,30.0,21.4,30.14,NW,315,20.0,25.0,70,0.00,,,0.00,Wunderground v.1.15,2013-02-21 04:09:00,
2013-02-20 23:14:00,29.9,20.6,30.14,NW,317,20.0,28.0,68,0.00,,,0.00,Wunderground v.1.15,2013-02-21 04:14:00,
2013-02-20 23:19:00,30.0,21.4,30.14,NW,312,20.0,28.0,70,0.00,,,0.00,Wunderground v.1.15,2013-02-21 04:19:00,
2013-02-20 23:24:00,30.1,21.5,30.14,NW,306,18.0,25.0,70,0.00,,,0.00,Wunderground v.1.15,2013-02-21 04:24:00,
2013-02-20 23:29:00,29.9,21.0,30.14,NW,307,21.0,25.0,69,0.00,,,0.00,Wunderground v.1.15,2013-02-21 04:29:00,
2013-02-20 23:34:00,29.9,21.0,30.14,NW,311,19.0,28.0,69,0.00,,,0.00,Wunderground v.1.15,2013-02-21 04:34:00,
2013-02-20 23:39:00,29.8,20.9,30.14,NW,306,20.0,28.0,69,0.00,,,0.00,Wunderground v.1.15,2013-02-21 04:39:00,
2013-02-20 23:44:00,29.7,20.8,30.14,NW,313,22.0,24.0,69,0.00,,,0.00,Wunderground v.1.15,2013-02-21 04:44:00,
2013-02-20 23:49:00,29.6,20.0,30.14,NW,318,23.0,25.0,67,0.00,,,0.00,Wunderground v.1.15,2013-02-21 04:49:00,
2013-02-20 23:54:00,29.5,20.2,30.14,NW,306,19.0,22.0,68,0.00,,,0.00,Wunderground v.1.15,2013-02-21 04:54:00,
2013-02-20 23:59:00,29.6,20.7,30.14,NW,319,19.0,22.0,69,0.00,,,0.00,Wunderground v.1.15,2013-02-21 04:59:00,